Time;durP1;ratioP1;P1;durP2;ratioP2;P2;SDS_P1;SDS_P2;PMS_P1;PMS_P2;Temp;Humidity;BMP_temperature;BMP_pressure;BME280_temperature;BME280_humidity;BME280_pressure;Samples;Min_cycle;Max_cycle;Signal;HPM_P1;HPM_P2
2022/09/11 00:01:36;;;;;;;3.40;2.10;;;8.40;99.90;;;;;;4938465;29;20457;-86
2022/09/11 00:04:05;;;;;;;4.85;2.00;;;8.40;99.90;;;;;;4937435;29;20401;-88
2022/09/11 00:06:32;;;;;;;4.85;2.13;;;8.30;99.90;;;;;;4936827;29;20429;-88
2022/09/11 00:09:03;;;;;;;6.05;2.00;;;8.30;99.90;;;;;;4931068;29;20499;-87
2022/09/11 00:11:34;;;;;;;2.83;1.90;;;8.20;99.90;;;;;;4919768;29;20392;-88
2022/09/11 00:14:02;;;;;;;5.18;2.10;;;8.30;99.90;;;;;;4945766;29;20406;-88
2022/09/11 00:16:37;;;;;;;4.03;1.90;;;8.10;99.90;;;;;;4947360;29;20495;-87
2022/09/11 00:19:09;;;;;;;4.57;2.08;;;8.10;99.90;;;;;;4972526;28;20455;-87
2022/09/11 00:21:37;;;;;;;4.13;1.90;;;8.10;99.90;;;;;;4972250;28;20403;-88
2022/09/11 00:24:08;;;;;;;4.35;2.00;;;8.00;99.90;;;;;;4956695;28;20399;-88
2022/09/11 00:26:37;;;;;;;3.60;1.90;;;7.90;99.90;;;;;;4956581;29;20804;-87
2022/09/11 00:29:05;;;;;;;5.15;2.00;;;7.90;99.90;;;;;;4954331;28;20469;-91
2022/09/11 00:31:33;;;;;;;3.87;2.00;;;7.90;99.90;;;;;;4951814;29;20412;-88
2022/09/11 00:34:01;;;;;;;3.40;1.90;;;7.90;99.90;;;;;;4933512;29;20396;-87
2022/09/11 00:36:31;;;;;;;4.05;1.98;;;7.90;99.90;;;;;;4936332;29;20430;-87
2022/09/11 00:38:59;;;;;;;4.40;1.80;;;7.90;99.90;;;;;;4936497;29;20402;-87
2022/09/11 00:41:30;;;;;;;3.38;2.00;;;7.90;99.90;;;;;;4936410;29;20446;-88
2022/09/11 00:44:27;;;;;;;5.17;1.90;;;7.80;99.90;;;;;;4952479;29;20394;-87
2022/09/11 00:47:00;;;;;;;4.47;2.40;;;7.90;99.90;;;;;;4936098;29;20492;-88
2022/09/11 00:49:47;;;;;;;4.10;2.20;;;7.80;99.90;;;;;;4953403;29;20409;-88
2022/09/11 00:52:26;;;;;;;4.80;1.90;;;7.80;99.90;;;;;;4953042;28;20420;-88
2022/09/11 00:55:06;;;;;;;4.40;2.10;;;7.80;99.90;;;;;;4928270;29;20410;-88
2022/09/11 00:57:41;;;;;;;4.70;1.80;;;7.90;99.90;;;;;;4935747;29;20475;-87
2022/09/11 01:00:11;;;;;;;5.50;2.22;;;7.80;99.90;;;;;;4951780;29;20530;-84
2022/09/11 01:02:41;;;;;;;3.05;1.80;;;7.80;99.90;;;;;;4951168;29;20446;-87
2022/09/11 01:05:11;;;;;;;5.85;1.98;;;7.70;99.90;;;;;;4950768;29;20431;-87
2022/09/11 01:07:40;;;;;;;3.72;2.03;;;7.80;99.90;;;;;;4935107;29;20443;-88
2022/09/11 01:10:09;;;;;;;4.22;2.35;;;7.80;99.90;;;;;;4949634;29;20416;-86
2022/09/11 01:13:05;;;;;;;6.22;1.92;;;7.80;99.90;;;;;;4932583;29;20430;-88
2022/09/11 01:15:37;;;;;;;4.82;2.00;;;7.80;99.90;;;;;;4918308;29;20406;-88
2022/09/11 01:18:14;;;;;;;5.97;1.98;;;7.70;99.90;;;;;;4948341;29;20491;-87
2022/09/11 01:21:08;;;;;;;3.58;2.03;;;7.60;99.90;;;;;;4916461;29;20482;-88
2022/09/11 01:24:10;;;;;;;3.65;1.92;;;7.50;99.90;;;;;;4918414;29;20404;-88
2022/09/11 01:27:13;;;;;;;4.47;1.95;;;7.40;99.90;;;;;;4947529;29;20550;-89
2022/09/11 01:29:51;;;;;;;4.82;2.13;;;7.30;99.90;;;;;;4915277;29;20466;-88
2022/09/11 01:32:21;;;;;;;3.72;1.98;;;7.20;99.90;;;;;;4948320;29;20407;-88
2022/09/11 01:35:16;;;;;;;3.67;2.20;;;7.40;99.90;;;;;;4916006;29;20407;-88
2022/09/11 01:38:24;;;;;;;5.15;2.22;;;7.30;99.90;;;;;;4913601;29;20407;-87
2022/09/11 01:41:06;;;;;;;4.05;2.08;;;7.40;99.90;;;;;;4915813;29;20783;-88
2022/09/11 01:43:53;;;;;;;3.63;2.20;;;7.40;99.90;;;;;;4916017;29;20400;-89
2022/09/11 01:46:24;;;;;;;5.32;2.05;;;7.40;99.90;;;;;;4916016;29;20775;-90
2022/09/11 01:49:15;;;;;;;4.22;1.92;;;7.40;99.90;;;;;;4915671;29;20420;-87
2022/09/11 01:51:46;;;;;;;3.67;1.85;;;7.40;99.90;;;;;;4915629;29;20435;-88
2022/09/11 01:54:18;;;;;;;4.00;2.10;;;7.20;99.90;;;;;;4916185;29;20483;-89
2022/09/11 01:56:52;;;;;;;3.67;2.17;;;7.30;99.90;;;;;;4915397;29;20942;-88
2022/09/11 01:59:26;;;;;;;3.17;2.10;;;7.20;99.90;;;;;;4932754;29;20420;-88
2022/09/11 02:02:08;;;;;;;3.77;2.23;;;7.20;99.90;;;;;;4960571;28;22553;-89
2022/09/11 02:05:02;;;;;;;5.03;2.15;;;7.20;99.90;;;;;;4970263;28;20422;-88
2022/09/11 02:07:38;;;;;;;4.38;2.17;;;7.10;99.90;;;;;;4931897;29;20495;-88
2022/09/11 02:10:10;;;;;;;4.70;2.20;;;7.10;99.90;;;;;;4915847;29;20404;-88
2022/09/11 02:12:48;;;;;;;4.15;2.22;;;7.00;99.90;;;;;;4931937;29;20470;-89
2022/09/11 02:15:17;;;;;;;3.67;2.07;;;7.00;99.90;;;;;;4932376;29;20495;-89
2022/09/11 02:18:11;;;;;;;5.20;2.40;;;6.90;99.90;;;;;;4918544;29;22816;-87
2022/09/11 02:20:44;;;;;;;3.60;2.00;;;6.90;99.90;;;;;;4932108;29;20467;-89
2022/09/11 02:23:15;;;;;;;4.00;2.03;;;6.80;99.90;;;;;;4935216;29;20918;-88
2022/09/11 02:25:43;;;;;;;3.63;2.15;;;6.90;99.90;;;;;;4936980;29;20422;-90
2022/09/11 02:28:11;;;;;;;3.70;2.00;;;6.90;99.90;;;;;;4944697;29;20487;-90
2022/09/11 02:30:41;;;;;;;3.63;2.30;;;6.70;99.90;;;;;;4970133;28;20411;-88
2022/09/11 02:33:27;;;;;;;4.25;2.22;;;6.70;99.90;;;;;;4953714;28;20835;-90
2022/09/11 02:36:11;;;;;;;3.58;2.03;;;6.50;99.90;;;;;;4933421;29;20510;-88
2022/09/11 02:39:29;;;;;;;4.88;1.80;;;6.50;99.90;;;;;;4932524;29;20420;-89
2022/09/11 02:42:12;;;;;;;4.07;2.20;;;6.50;99.90;;;;;;4970404;28;20420;-88
2022/09/11 02:45:05;;;;;;;4.13;2.00;;;6.50;99.90;;;;;;4917739;29;20400;-88
2022/09/11 02:47:39;;;;;;;5.10;2.25;;;6.60;99.90;;;;;;4953394;28;20434;-90
2022/09/11 02:50:24;;;;;;;4.93;2.28;;;6.60;99.90;;;;;;4941006;29;20394;-89
2022/09/11 02:53:07;;;;;;;4.73;2.10;;;6.50;99.90;;;;;;4940809;29;20405;-89
2022/09/11 02:55:59;;;;;;;4.32;2.70;;;6.60;99.90;;;;;;4939112;29;20416;-90
2022/09/11 02:58:54;;;;;;;5.32;2.35;;;6.60;99.90;;;;;;4938843;29;20624;-89
2022/09/11 03:01:23;;;;;;;5.97;2.20;;;6.50;99.90;;;;;;4939161;29;20414;-85
2022/09/11 03:03:51;;;;;;;3.97;2.15;;;6.60;99.90;;;;;;4939709;29;20417;-89
2022/09/11 03:06:26;;;;;;;4.68;2.20;;;6.50;99.90;;;;;;4927899;29;20459;-89
2022/09/11 03:08:54;;;;;;;4.03;2.17;;;6.40;99.90;;;;;;4935375;29;20487;-88
2022/09/11 03:11:22;;;;;;;4.97;2.15;;;6.50;99.90;;;;;;4936020;29;20412;-90
2022/09/11 03:13:50;;;;;;;6.03;2.47;;;6.40;99.90;;;;;;4935642;29;20411;-88
2022/09/11 03:16:19;;;;;;;4.75;2.33;;;6.30;99.90;;;;;;4936120;29;20494;-89
2022/09/11 03:18:46;;;;;;;5.45;2.33;;;6.30;99.90;;;;;;4943541;28;20470;-88
2022/09/11 03:21:15;;;;;;;3.72;2.15;;;6.30;99.90;;;;;;4958372;28;20520;-88
2022/09/11 03:23:43;;;;;;;4.53;2.13;;;6.30;99.90;;;;;;4939674;29;20402;-88
2022/09/11 03:26:12;;;;;;;4.43;2.30;;;6.40;99.90;;;;;;4938687;29;20421;-88
2022/09/11 03:28:40;;;;;;;3.78;2.35;;;6.30;99.90;;;;;;4938698;29;20410;-89
2022/09/11 03:31:08;;;;;;;4.05;2.15;;;6.20;99.90;;;;;;4954970;29;20414;-88
2022/09/11 03:33:37;;;;;;;4.00;2.25;;;6.30;99.90;;;;;;4944234;28;20416;-89
2022/09/11 03:36:05;;;;;;;3.50;2.40;;;6.20;99.90;;;;;;4946813;29;20443;-89
2022/09/11 03:38:33;;;;;;;5.38;2.42;;;6.20;99.90;;;;;;4949908;29;20416;-87
2022/09/11 03:41:02;;;;;;;4.95;2.50;;;6.10;99.90;;;;;;4954263;29;20521;-87
2022/09/11 03:43:32;;;;;;;5.15;2.55;;;6.20;99.90;;;;;;4953340;29;20406;-89
2022/09/11 03:46:00;;;;;;;4.57;2.35;;;6.10;99.90;;;;;;4938178;29;20402;-90
2022/09/11 03:48:28;;;;;;;4.63;2.08;;;6.00;99.90;;;;;;4943653;29;20436;-87
2022/09/11 03:50:55;;;;;;;4.90;2.25;;;6.00;99.90;;;;;;4953072;29;20484;-88
2022/09/11 03:53:24;;;;;;;5.53;2.70;;;6.00;99.90;;;;;;4953443;28;20401;-89
2022/09/11 03:55:52;;;;;;;4.47;2.20;;;5.90;99.90;;;;;;4965562;28;21011;-88
2022/09/11 03:58:20;;;;;;;6.47;2.20;;;5.90;99.90;;;;;;4972220;28;20943;-89
2022/09/11 04:00:47;;;;;;;5.10;2.20;;;5.90;99.90;;;;;;4951929;28;20905;-89
2022/09/11 04:03:16;;;;;;;5.67;2.33;;;5.90;99.90;;;;;;4924944;29;20415;-89
2022/09/11 04:05:56;;;;;;;5.75;2.42;;;5.90;99.90;;;;;;4918447;29;20824;-87
2022/09/11 04:08:24;;;;;;;5.43;2.70;;;6.00;99.90;;;;;;4934244;29;20451;-89
2022/09/11 04:11:01;;;;;;;4.38;2.30;;;5.90;99.90;;;;;;4929789;29;20923;-89
2022/09/11 04:13:32;;;;;;;4.30;2.35;;;6.00;99.90;;;;;;4971492;28;20412;-90
2022/09/11 04:16:13;;;;;;;4.73;2.00;;;6.00;99.90;;;;;;4956379;29;20487;-88
2022/09/11 04:18:44;;;;;;;4.80;2.28;;;6.00;99.90;;;;;;4969780;28;20412;-89
2022/09/11 04:21:16;;;;;;;4.68;2.40;;;6.00;99.90;;;;;;4937284;29;20459;-89
2022/09/11 04:23:55;;;;;;;4.32;2.00;;;5.90;99.90;;;;;;4940546;29;20416;-88
2022/09/11 04:26:27;;;;;;;4.18;2.20;;;5.80;99.90;;;;;;4960591;28;20423;-90
2022/09/11 04:29:16;;;;;;;4.00;2.00;;;5.90;99.90;;;;;;4935601;29;20416;-88
2022/09/11 04:31:44;;;;;;;4.28;2.10;;;5.90;99.90;;;;;;4964028;28;20410;-89
2022/09/11 04:34:14;;;;;;;4.10;2.00;;;6.00;99.90;;;;;;4952740;29;20406;-89
2022/09/11 04:36:42;;;;;;;3.25;2.20;;;5.90;99.90;;;;;;4952446;29;20488;-89
2022/09/11 04:39:14;;;;;;;6.47;2.17;;;6.00;99.90;;;;;;4952074;28;20413;-86
2022/09/11 04:41:44;;;;;;;5.43;2.30;;;6.00;99.90;;;;;;4937572;29;20397;-90
2022/09/11 04:44:13;;;;;;;4.63;2.22;;;6.00;99.90;;;;;;4951992;29;20423;-88
2022/09/11 04:46:44;;;;;;;5.82;2.08;;;5.90;99.90;;;;;;4938235;29;20406;-89
2022/09/11 04:49:13;;;;;;;3.90;2.35;;;5.90;99.90;;;;;;4936031;29;20842;-88
2022/09/11 04:51:42;;;;;;;4.20;2.17;;;6.00;99.90;;;;;;4937766;29;20397;-88
2022/09/11 04:54:21;;;;;;;4.23;2.07;;;6.00;99.90;;;;;;4937532;29;20398;-89
2022/09/11 04:56:50;;;;;;;5.38;2.10;;;6.10;99.90;;;;;;4952468;29;20913;-89
2022/09/11 04:59:21;;;;;;;5.07;1.70;;;6.10;99.90;;;;;;4937129;29;20432;-89
2022/09/11 05:01:54;;;;;;;6.60;2.33;;;6.00;99.90;;;;;;4924278;29;20450;-89
2022/09/11 05:04:23;;;;;;;4.65;1.90;;;6.10;99.90;;;;;;4948939;29;20417;-89
2022/09/11 05:06:54;;;;;;;3.85;1.85;;;6.20;99.90;;;;;;4927246;29;20435;-89
2022/09/11 05:09:24;;;;;;;3.97;1.90;;;6.30;99.90;;;;;;4950664;29;20915;-88
2022/09/11 05:11:53;;;;;;;3.78;1.70;;;6.40;99.90;;;;;;4972231;28;20400;-90
2022/09/11 05:14:22;;;;;;;5.18;2.20;;;6.50;99.90;;;;;;4971248;28;20823;-91
2022/09/11 05:16:51;;;;;;;6.28;1.95;;;6.40;99.90;;;;;;4963939;28;20418;-90
2022/09/11 05:19:24;;;;;;;5.80;2.15;;;6.50;99.90;;;;;;4952116;28;20406;-89
2022/09/11 05:21:52;;;;;;;4.90;1.97;;;6.50;99.90;;;;;;4935931;29;20424;-88
2022/09/11 05:24:19;;;;;;;4.15;2.10;;;6.60;99.90;;;;;;4933644;29;20486;-88
2022/09/11 05:26:47;;;;;;;2.70;1.73;;;6.70;99.90;;;;;;4932038;29;20506;-89
2022/09/11 05:29:18;;;;;;;4.22;1.92;;;6.80;99.90;;;;;;4933302;29;20416;-88
2022/09/11 05:31:57;;;;;;;3.58;1.85;;;6.80;99.90;;;;;;4928544;29;20773;-89
2022/09/11 05:34:27;;;;;;;5.70;1.90;;;6.90;99.90;;;;;;4936566;29;20660;-87
2022/09/11 05:36:56;;;;;;;5.82;2.28;;;7.00;99.90;;;;;;4951705;28;20430;-89
2022/09/11 05:39:27;;;;;;;3.95;1.92;;;7.20;99.90;;;;;;4952013;28;20797;-88
2022/09/11 05:41:56;;;;;;;5.03;1.90;;;7.10;99.90;;;;;;4935479;29;20406;-88
2022/09/11 05:44:29;;;;;;;6.18;2.10;;;7.20;99.90;;;;;;4936645;29;20418;-89
2022/09/11 05:46:58;;;;;;;5.10;1.85;;;7.20;99.90;;;;;;4936853;29;20940;-88
2022/09/11 05:49:26;;;;;;;5.53;1.95;;;7.20;99.90;;;;;;4921495;29;20825;-89
2022/09/11 05:51:54;;;;;;;5.40;2.10;;;7.40;99.90;;;;;;4935047;29;20410;-89
2022/09/11 05:54:24;;;;;;;4.68;1.92;;;7.40;99.90;;;;;;4970223;28;20404;-89
2022/09/11 05:56:54;;;;;;;12.10;2.45;;;7.50;99.90;;;;;;4968888;28;20415;-89
2022/09/11 05:59:26;;;;;;;6.30;2.07;;;7.50;99.90;;;;;;4935996;29;20413;-88
2022/09/11 06:01:55;;;;;;;5.00;1.77;;;7.50;99.90;;;;;;4920185;29;20509;-89
2022/09/11 06:04:35;;;;;;;5.22;1.95;;;7.60;99.90;;;;;;4934735;29;20417;-90
2022/09/11 06:07:04;;;;;;;6.10;2.13;;;7.70;99.90;;;;;;4959633;28;20829;-88
2022/09/11 06:09:32;;;;;;;5.18;1.95;;;7.60;99.90;;;;;;4936730;29;20421;-88
2022/09/11 06:12:02;;;;;;;4.88;2.00;;;7.70;99.90;;;;;;4935639;29;20904;-87
2022/09/11 06:14:30;;;;;;;5.28;1.98;;;7.80;99.90;;;;;;4935597;29;20425;-88
2022/09/11 06:16:59;;;;;;;5.47;2.28;;;7.80;99.90;;;;;;4929764;29;20443;-89
2022/09/11 06:19:32;;;;;;;7.47;2.20;;;7.90;99.90;;;;;;4964431;28;20426;-88
2022/09/11 06:22:04;;;;;;;6.22;2.25;;;8.10;99.90;;;;;;4951085;28;20794;-89
2022/09/11 06:24:36;;;;;;;6.40;2.67;;;8.00;99.90;;;;;;4936286;29;20410;-86
2022/09/11 06:27:04;;;;;;;8.73;4.47;;;8.00;99.90;;;;;;4949867;29;20420;-87
2022/09/11 06:29:36;;;;;;;7.00;2.90;;;8.10;99.90;;;;;;4949772;29;20504;-86
2022/09/11 06:32:05;;;;;;;6.53;3.30;;;8.10;99.90;;;;;;4949629;28;20414;-86
2022/09/11 06:34:33;;;;;;;7.90;3.15;;;8.20;99.90;;;;;;4920530;29;20418;-85
2022/09/11 06:37:05;;;;;;;5.13;2.33;;;8.30;99.90;;;;;;4955607;28;20497;-87
2022/09/11 06:39:33;;;;;;;5.05;2.10;;;8.30;99.90;;;;;;4930844;29;20408;-86
2022/09/11 06:42:02;;;;;;;5.80;2.50;;;8.40;99.90;;;;;;4930991;29;20414;-86
2022/09/11 06:44:34;;;;;;;7.50;2.25;;;8.50;99.90;;;;;;4923446;29;20404;-86
2022/09/11 06:47:02;;;;;;;4.25;1.83;;;8.50;99.90;;;;;;4930693;29;20423;-87
2022/09/11 06:49:32;;;;;;;4.88;1.70;;;8.50;99.90;;;;;;4932558;29;20488;-85
2022/09/11 06:52:17;;;;;;;4.63;2.00;;;8.50;99.90;;;;;;4941558;29;20486;-85
2022/09/11 06:54:58;;;;;;;4.25;1.85;;;8.60;99.90;;;;;;4967355;28;20492;-85
2022/09/11 06:57:27;;;;;;;12.88;7.25;;;8.70;99.90;;;;;;4965764;28;20418;-84
2022/09/11 06:59:58;;;;;;;6.70;2.50;;;8.80;99.90;;;;;;4933904;29;20402;-86
2022/09/11 07:02:26;;;;;;;9.70;2.53;;;8.90;99.90;;;;;;4933534;29;20418;-87
2022/09/11 07:04:54;;;;;;;5.10;2.10;;;9.00;99.90;;;;;;4934024;29;20402;-88
2022/09/11 07:07:25;;;;;;;5.45;2.78;;;9.10;99.90;;;;;;4915576;29;20418;-87
2022/09/11 07:09:53;;;;;;;5.00;2.00;;;9.20;99.90;;;;;;4914727;29;20804;-88
2022/09/11 07:12:22;;;;;;;3.13;1.85;;;9.10;99.90;;;;;;4939919;29;20412;-88
2022/09/11 07:14:50;;;;;;;3.70;1.90;;;9.10;99.90;;;;;;4968596;28;20757;-87
2022/09/11 07:17:18;;;;;;;3.67;1.85;;;9.10;99.90;;;;;;4952862;29;20483;-88
2022/09/11 07:19:49;;;;;;;3.38;1.77;;;9.00;99.90;;;;;;4930617;29;20828;-88
2022/09/11 07:22:18;;;;;;;4.88;1.95;;;9.00;99.90;;;;;;4928089;29;20849;-88
2022/09/11 07:24:47;;;;;;;5.10;1.77;;;9.10;99.90;;;;;;4938951;29;20416;-88
2022/09/11 07:27:15;;;;;;;4.90;1.90;;;9.10;99.90;;;;;;4936953;29;20410;-89
2022/09/11 07:29:43;;;;;;;16.55;6.60;;;9.10;99.90;;;;;;4928617;29;20418;-87
2022/09/11 07:32:12;;;;;;;3.92;2.17;;;9.20;99.90;;;;;;4923562;29;20410;-87
2022/09/11 07:34:39;;;;;;;9.27;2.60;;;9.10;99.90;;;;;;4921426;29;20496;-87
2022/09/11 07:37:09;;;;;;;5.60;2.70;;;9.20;99.90;;;;;;4930271;29;20437;-87
2022/09/11 07:39:39;;;;;;;6.32;2.30;;;9.20;99.90;;;;;;4936368;29;20786;-87
2022/09/11 07:42:14;;;;;;;10.03;4.13;;;9.20;99.90;;;;;;4919727;29;20510;-87
2022/09/11 07:44:43;;;;;;;13.55;4.68;;;9.20;99.90;;;;;;4950703;28;20418;-86
2022/09/11 07:47:11;;;;;;;6.82;2.42;;;9.20;99.90;;;;;;4929400;29;20788;-87
2022/09/11 07:49:45;;;;;;;5.05;2.50;;;9.20;99.90;;;;;;4931113;29;20417;-86
2022/09/11 07:52:14;;;;;;;4.57;2.00;;;9.30;99.90;;;;;;4928639;29;20992;-86
2022/09/11 07:54:50;;;;;;;5.65;2.88;;;9.30;99.90;;;;;;4924256;29;20396;-85
2022/09/11 07:57:23;;;;;;;5.70;2.17;;;9.40;99.90;;;;;;4933165;29;20419;-85
2022/09/11 07:59:51;;;;;;;5.28;1.95;;;9.50;99.90;;;;;;4930124;29;20489;-86
2022/09/11 08:02:21;;;;;;;5.40;2.20;;;9.50;99.90;;;;;;4924659;29;20425;-86
2022/09/11 08:04:50;;;;;;;4.20;2.15;;;9.60;99.90;;;;;;4935717;29;20406;-86
2022/09/11 08:07:20;;;;;;;4.88;2.10;;;9.60;99.90;;;;;;4951774;29;20414;-87
2022/09/11 08:09:48;;;;;;;4.45;2.10;;;9.60;99.90;;;;;;4941452;28;20410;-87
2022/09/11 08:12:36;;;;;;;5.47;2.50;;;9.60;99.90;;;;;;4951198;29;20921;-85
2022/09/11 08:15:04;;;;;;;4.65;2.08;;;9.60;99.90;;;;;;4926526;29;20874;-85
2022/09/11 08:17:33;;;;;;;5.37;2.40;;;9.60;99.90;;;;;;4935284;29;20769;-86
2022/09/11 08:20:02;;;;;;;4.83;2.07;;;9.60;99.90;;;;;;4936177;29;20414;-86
2022/09/11 08:22:29;;;;;;;7.97;2.20;;;9.70;99.90;;;;;;4936029;29;20472;-84
2022/09/11 08:24:57;;;;;;;11.57;2.22;;;9.70;99.90;;;;;;4935642;29;20900;-86
2022/09/11 08:27:25;;;;;;;6.50;2.65;;;9.80;99.90;;;;;;4937315;29;20421;-86
2022/09/11 08:29:53;;;;;;;4.97;2.03;;;9.80;99.90;;;;;;4931035;29;20410;-90
2022/09/11 08:32:21;;;;;;;5.13;2.00;;;9.90;99.90;;;;;;4943893;28;20438;-90
2022/09/11 08:34:50;;;;;;;5.60;2.10;;;10.00;99.90;;;;;;4934265;29;20460;-88
2022/09/11 08:37:21;;;;;;;6.00;2.25;;;10.00;99.90;;;;;;4922874;29;20414;-90
2022/09/11 08:39:49;;;;;;;6.40;2.03;;;10.00;99.90;;;;;;4927313;29;20502;-90
2022/09/11 08:42:17;;;;;;;5.32;2.20;;;10.00;99.90;;;;;;4924805;29;20406;-89
2022/09/11 08:44:53;;;;;;;4.85;1.90;;;10.00;99.90;;;;;;4945447;28;20414;-90
2022/09/11 08:47:35;;;;;;;4.38;1.95;;;9.90;99.90;;;;;;4915456;29;20474;-89
2022/09/11 08:50:12;;;;;;;5.93;1.77;;;10.00;99.90;;;;;;4942589;29;20466;-89
2022/09/11 08:52:42;;;;;;;5.85;2.40;;;10.00;99.90;;;;;;4945823;28;20795;-89
2022/09/11 08:55:14;;;;;;;5.65;2.10;;;10.00;99.90;;;;;;4931503;29;20505;-89
2022/09/11 08:58:00;;;;;;;3.83;1.85;;;10.00;99.90;;;;;;4929741;29;20430;-90
2022/09/11 09:00:52;;;;;;;4.38;1.83;;;10.00;99.90;;;;;;4935340;29;20610;-90
2022/09/11 09:03:23;;;;;;;9.23;2.47;;;10.10;99.90;;;;;;4947391;28;20423;-89
2022/09/11 09:06:23;;;;;;;6.05;2.67;;;10.10;99.90;;;;;;4925419;29;20432;-90
2022/09/11 09:09:24;;;;;;;6.07;2.20;;;10.10;99.90;;;;;;4926010;29;20418;-89
2022/09/11 09:12:27;;;;;;;4.47;1.87;;;10.20;99.90;;;;;;4928516;29;20453;-92
2022/09/11 09:15:38;;;;;;;6.07;2.13;;;10.10;99.90;;;;;;4932994;29;20453;-94
2022/09/11 09:18:12;;;;;;;7.65;2.40;;;10.20;99.90;;;;;;4930011;29;20492;-93
2022/09/11 09:20:44;;;;;;;6.30;2.20;;;10.20;99.90;;;;;;4929563;29;20414;-92
2022/09/11 09:23:37;;;;;;;9.03;2.43;;;10.20;99.90;;;;;;4920726;29;20423;-92
2022/09/11 09:26:16;;;;;;;6.78;2.47;;;10.20;99.90;;;;;;4908132;29;20443;-88
2022/09/11 09:28:49;;;;;;;3.85;2.17;;;10.20;99.90;;;;;;4920156;29;20434;-92
2022/09/11 09:31:21;;;;;;;4.53;2.20;;;10.20;99.90;;;;;;4918279;29;20408;-93
2022/09/11 09:33:56;;;;;;;5.40;2.22;;;10.20;99.90;;;;;;4946691;29;20402;-88
2022/09/11 09:36:27;;;;;;;8.23;2.20;;;10.20;99.90;;;;;;4940997;29;20410;-92
2022/09/11 09:38:57;;;;;;;3.63;1.83;;;10.20;99.90;;;;;;4930525;29;20410;-93
2022/09/11 09:41:43;;;;;;;5.43;2.05;;;10.20;99.90;;;;;;4920188;29;20485;-89
2022/09/11 09:44:22;;;;;;;5.73;2.20;;;10.20;99.90;;;;;;4923060;29;20454;-90
2022/09/11 09:46:55;;;;;;;7.05;2.20;;;10.20;99.90;;;;;;4921756;29;20508;-92
2022/09/11 09:49:32;;;;;;;5.93;2.00;;;10.20;99.90;;;;;;4927092;29;20425;-89
2022/09/11 09:52:13;;;;;;;13.27;6.27;;;10.20;99.90;;;;;;4930170;29;20504;-92
2022/09/11 09:54:41;;;;;;;6.55;2.60;;;10.10;99.90;;;;;;4931066;29;20394;-88
2022/09/11 09:57:10;;;;;;;4.53;2.35;;;10.20;99.90;;;;;;4929816;29;20417;-86
2022/09/11 09:59:51;;;;;;;7.05;2.50;;;10.20;99.90;;;;;;4920531;29;20410;-86
2022/09/11 10:02:56;;;;;;;5.30;2.05;;;10.20;99.90;;;;;;4944451;28;20435;-85
2022/09/11 10:05:30;;;;;;;2.93;1.80;;;10.20;99.90;;;;;;4931492;29;20999;-83
2022/09/11 10:08:06;;;;;;;5.07;2.20;;;10.20;99.90;;;;;;4934472;29;20421;-86
2022/09/11 10:10:35;;;;;;;4.40;2.20;;;10.20;99.90;;;;;;4934873;29;20521;-89
2022/09/11 10:13:13;;;;;;;6.88;2.40;;;10.20;99.90;;;;;;4921757;29;21010;-89
2022/09/11 10:15:50;;;;;;;4.43;2.22;;;10.10;99.90;;;;;;4927787;29;20414;-83
2022/09/11 10:18:39;;;;;;;3.08;2.00;;;10.10;99.90;;;;;;4933122;29;20794;-85
2022/09/11 10:21:15;;;;;;;2.97;1.80;;;10.00;99.90;;;;;;4933263;29;20892;-89
2022/09/11 10:23:53;;;;;;;3.47;1.90;;;9.90;99.90;;;;;;4938120;29;20406;-88
2022/09/11 10:26:39;;;;;;;5.22;2.10;;;9.90;99.90;;;;;;4933112;29;20418;-84
2022/09/11 10:29:11;;;;;;;3.83;2.22;;;9.80;99.90;;;;;;4930337;29;20478;-84
2022/09/11 10:31:41;;;;;;;5.28;2.85;;;9.80;99.90;;;;;;4932163;29;20473;-92
2022/09/11 10:34:15;;;;;;;10.23;3.38;;;9.80;99.90;;;;;;4917453;29;20415;-86
2022/09/11 10:36:53;;;;;;;6.00;3.03;;;9.70;99.90;;;;;;4925442;29;20920;-84
2022/09/11 10:39:24;;;;;;;3.67;2.38;;;9.80;99.90;;;;;;4923146;29;20413;-84
2022/09/11 10:41:55;;;;;;;5.65;2.45;;;9.70;99.90;;;;;;4922818;29;20525;-82
2022/09/11 10:44:23;;;;;;;4.17;2.40;;;9.70;99.90;;;;;;4933838;29;20409;-85
2022/09/11 10:47:17;;;;;;;4.50;2.20;;;9.70;99.90;;;;;;4924148;29;20921;-83
2022/09/11 10:49:48;;;;;;;4.60;2.38;;;9.70;99.90;;;;;;4930651;29;20924;-85
2022/09/11 10:52:21;;;;;;;4.60;2.05;;;9.70;99.90;;;;;;4932614;29;20449;-85
2022/09/11 10:55:14;;;;;;;5.18;2.22;;;9.70;99.90;;;;;;4944446;29;20405;-86
2022/09/11 10:57:50;;;;;;;4.78;2.13;;;9.70;99.90;;;;;;4927381;29;20801;-86
2022/09/11 11:00:29;;;;;;;5.67;2.20;;;9.70;99.90;;;;;;4930931;29;20417;-84
2022/09/11 11:03:03;;;;;;;4.03;2.05;;;9.70;99.90;;;;;;4928399;29;20899;-83
2022/09/11 11:05:58;;;;;;;3.45;2.17;;;9.70;99.90;;;;;;4948129;29;20400;-83
2022/09/11 11:08:56;;;;;;;3.45;2.03;;;9.70;99.90;;;;;;4933890;29;20496;-84
2022/09/11 11:11:39;;;;;;;3.87;2.30;;;9.80;99.90;;;;;;4928895;29;20410;-83
2022/09/11 11:14:22;;;;;;;3.37;1.97;;;9.80;99.90;;;;;;4942972;28;20420;-83
2022/09/11 11:17:18;;;;;;;3.65;2.40;;;9.80;99.90;;;;;;4924963;29;20409;-84
2022/09/11 11:20:31;;;;;;;6.32;2.33;;;9.70;99.90;;;;;;4931337;29;20409;-83
2022/09/11 11:23:30;;;;;;;5.47;2.65;;;9.70;99.90;;;;;;4942186;29;20421;-83
2022/09/11 11:26:21;;;;;;;5.03;2.90;;;9.60;99.90;;;;;;4930759;29;20911;-85
2022/09/11 11:29:07;;;;;;;4.40;2.20;;;9.70;99.90;;;;;;4932456;29;20420;-85
2022/09/11 11:31:47;;;;;;;6.10;2.78;;;9.60;99.90;;;;;;4918352;29;20462;-84
2022/09/11 11:34:21;;;;;;;4.85;2.42;;;9.60;99.90;;;;;;4927491;29;20447;-85
2022/09/11 11:36:59;;;;;;;4.75;2.35;;;9.60;99.90;;;;;;4951643;29;20389;-87
2022/09/11 11:39:50;;;;;;;6.53;2.33;;;9.60;99.90;;;;;;4936733;29;20413;-85
2022/09/11 11:42:29;;;;;;;4.25;2.20;;;9.60;99.90;;;;;;4932663;29;20418;-85
2022/09/11 11:45:02;;;;;;;4.97;2.60;;;9.60;99.90;;;;;;4943503;29;20499;-83
2022/09/11 11:47:41;;;;;;;4.55;2.28;;;9.70;99.90;;;;;;4943834;29;20487;-84
2022/09/11 11:50:40;;;;;;;4.63;2.33;;;9.60;99.90;;;;;;4942344;29;20413;-83
2022/09/11 11:53:31;;;;;;;3.83;2.00;;;9.60;99.90;;;;;;4933693;29;20465;-83
2022/09/11 11:56:17;;;;;;;4.18;2.05;;;9.60;99.90;;;;;;4940001;29;20413;-83
2022/09/11 11:58:51;;;;;;;4.38;2.17;;;9.60;99.90;;;;;;4927029;29;20410;-83
2022/09/11 12:01:56;;;;;;;3.90;2.05;;;9.60;99.90;;;;;;4935277;29;20390;-84
2022/09/11 12:04:33;;;;;;;3.50;2.23;;;9.60;99.90;;;;;;4930218;29;20407;-85
2022/09/11 12:07:03;;;;;;;4.80;2.50;;;9.60;99.90;;;;;;4929274;29;20410;-82
2022/09/11 12:09:31;;;;;;;3.72;2.20;;;9.50;99.90;;;;;;4935062;29;20442;-84
2022/09/11 12:12:05;;;;;;;3.45;2.00;;;9.50;99.90;;;;;;4934884;29;20834;-85
2022/09/11 12:14:33;;;;;;;4.17;2.00;;;9.50;99.90;;;;;;4925077;29;20427;-85
2022/09/11 12:17:28;;;;;;;3.13;2.22;;;9.40;99.90;;;;;;4929312;29;20465;-85
2022/09/11 12:20:14;;;;;;;3.65;2.03;;;9.40;99.90;;;;;;4928664;29;20417;-85
2022/09/11 12:22:43;;;;;;;3.10;2.40;;;9.50;99.90;;;;;;4927646;29;20410;-85
2022/09/11 12:25:20;;;;;;;3.08;2.17;;;9.50;99.90;;;;;;4936006;29;20822;-84
2022/09/11 12:28:09;;;;;;;4.90;2.30;;;9.40;99.90;;;;;;4924651;29;20414;-85
2022/09/11 12:30:59;;;;;;;3.70;2.10;;;9.40;99.90;;;;;;4934677;29;20414;-85
2022/09/11 12:33:48;;;;;;;4.15;2.10;;;9.40;99.90;;;;;;4935122;29;20406;-85
2022/09/11 12:36:17;;;;;;;3.17;2.20;;;9.40;99.90;;;;;;4916657;29;20571;-84
2022/09/11 12:38:55;;;;;;;4.03;2.25;;;9.40;99.90;;;;;;4924177;29;20402;-85
2022/09/11 12:41:29;;;;;;;4.13;1.92;;;9.40;99.90;;;;;;4927759;29;20524;-84
2022/09/11 12:43:57;;;;;;;3.50;2.17;;;9.40;99.90;;;;;;4935908;29;20404;-85
2022/09/11 12:46:25;;;;;;;4.47;2.50;;;9.40;99.90;;;;;;4928723;29;20785;-85
2022/09/11 12:49:04;;;;;;;3.60;2.30;;;9.40;99.90;;;;;;4935541;29;20512;-85
2022/09/11 12:51:58;;;;;;;3.28;2.25;;;9.50;99.90;;;;;;4926641;29;20416;-85
2022/09/11 12:54:52;;;;;;;4.13;2.22;;;9.50;99.90;;;;;;4950215;29;20478;-85
2022/09/11 12:57:29;;;;;;;4.70;2.75;;;9.40;99.90;;;;;;4934366;29;20470;-85
2022/09/11 13:00:03;;;;;;;3.55;2.53;;;9.50;99.90;;;;;;4931061;29;20798;-85
2022/09/11 13:02:42;;;;;;;4.03;2.50;;;9.40;99.90;;;;;;4931137;29;20497;-85
2022/09/11 13:05:34;;;;;;;3.50;2.33;;;9.40;99.90;;;;;;4930894;29;20923;-84
2022/09/11 13:08:15;;;;;;;5.28;2.53;;;9.30;99.90;;;;;;4941102;28;20420;-85
2022/09/11 13:10:45;;;;;;;3.85;2.58;;;9.30;99.90;;;;;;4934862;29;20441;-84
2022/09/11 13:13:33;;;;;;;3.40;2.47;;;9.30;99.90;;;;;;4925070;29;20418;-84
2022/09/11 13:16:33;;;;;;;3.70;2.50;;;9.40;99.90;;;;;;4934917;29;20414;-84
2022/09/11 13:19:22;;;;;;;4.65;2.90;;;9.40;99.90;;;;;;4924966;29;20410;-84
2022/09/11 13:21:55;;;;;;;5.05;2.67;;;9.40;99.90;;;;;;4942338;28;20917;-86
2022/09/11 13:24:29;;;;;;;3.35;2.53;;;9.40;99.90;;;;;;4925851;29;20425;-85
2022/09/11 13:27:12;;;;;;;4.40;2.50;;;9.40;99.90;;;;;;4933550;29;20417;-84
2022/09/11 13:29:41;;;;;;;5.90;2.90;;;9.40;99.90;;;;;;4925281;29;20820;-85
2022/09/11 13:32:13;;;;;;;3.85;2.50;;;9.40;99.90;;;;;;4946409;28;20427;-85
2022/09/11 13:34:47;;;;;;;5.78;2.55;;;9.50;99.90;;;;;;4932991;29;20412;-85
2022/09/11 13:37:31;;;;;;;4.10;2.70;;;9.50;99.90;;;;;;4934180;29;20414;-85
2022/09/11 13:40:00;;;;;;;3.65;2.78;;;9.40;99.90;;;;;;4923736;29;20409;-85